sensor_id;sensor_type;location;lat;lon;timestamp;temperature;humidity
418;DHT22;49;48.530;9.200;2022-09-02T00:00:47;21.20;37.30
418;DHT22;49;48.530;9.200;2022-09-02T00:03:17;20.90;35.10
418;DHT22;49;48.530;9.200;2022-09-02T00:05:44;20.80;43.10
418;DHT22;49;48.530;9.200;2022-09-02T00:08:11;20.80;38.70
418;DHT22;49;48.530;9.200;2022-09-02T00:10:40;20.00;37.20
418;DHT22;49;48.530;9.200;2022-09-02T00:13:08;19.10;38.80
418;DHT22;49;48.530;9.200;2022-09-02T00:15:36;18.60;40.70
418;DHT22;49;48.530;9.200;2022-09-02T00:18:03;18.60;43.30
418;DHT22;49;48.530;9.200;2022-09-02T00:20:32;18.50;45.40
418;DHT22;49;48.530;9.200;2022-09-02T00:22:59;18.60;43.30
418;DHT22;49;48.530;9.200;2022-09-02T00:25:27;18.50;48.50
418;DHT22;49;48.530;9.200;2022-09-02T00:27:53;18.60;43.30
418;DHT22;49;48.530;9.200;2022-09-02T00:30:20;18.70;43.00
418;DHT22;49;48.530;9.200;2022-09-02T00:32:47;18.20;44.10
418;DHT22;49;48.530;9.200;2022-09-02T00:35:14;18.00;46.80
418;DHT22;49;48.530;9.200;2022-09-02T00:37:42;18.20;45.00
418;DHT22;49;48.530;9.200;2022-09-02T00:40:10;18.30;46.00
418;DHT22;49;48.530;9.200;2022-09-02T00:42:38;18.80;50.10
418;DHT22;49;48.530;9.200;2022-09-02T00:45:06;19.20;43.80
418;DHT22;49;48.530;9.200;2022-09-02T00:47:33;19.40;40.80
418;DHT22;49;48.530;9.200;2022-09-02T00:50:04;19.60;44.60
418;DHT22;49;48.530;9.200;2022-09-02T00:52:33;19.20;40.60
418;DHT22;49;48.530;9.200;2022-09-02T00:55:04;19.50;40.10
418;DHT22;49;48.530;9.200;2022-09-02T00:57:35;19.20;39.40
418;DHT22;49;48.530;9.200;2022-09-02T01:00:07;19.10;45.20
418;DHT22;49;48.530;9.200;2022-09-02T01:02:36;19.50;46.50
418;DHT22;49;48.530;9.200;2022-09-02T01:05:07;19.60;43.00
418;DHT22;49;48.530;9.200;2022-09-02T01:07:35;19.70;46.20
418;DHT22;49;48.530;9.200;2022-09-02T01:10:08;19.90;44.40
418;DHT22;49;48.530;9.200;2022-09-02T01:12:36;20.30;46.00
418;DHT22;49;48.530;9.200;2022-09-02T01:15:04;20.50;41.80
418;DHT22;49;48.530;9.200;2022-09-02T01:17:32;20.70;38.70
418;DHT22;49;48.530;9.200;2022-09-02T01:20:04;20.30;42.80
418;DHT22;49;48.530;9.200;2022-09-02T01:22:33;19.80;45.70
418;DHT22;49;48.530;9.200;2022-09-02T01:25:04;19.70;39.10
418;DHT22;49;48.530;9.200;2022-09-02T01:27:33;19.40;39.40
418;DHT22;49;48.530;9.200;2022-09-02T01:30:00;19.50;45.80
418;DHT22;49;48.530;9.200;2022-09-02T01:32:29;18.80;43.00
418;DHT22;49;48.530;9.200;2022-09-02T01:34:55;18.80;43.40
418;DHT22;49;48.530;9.200;2022-09-02T01:37:24;18.40;44.50
418;DHT22;49;48.530;9.200;2022-09-02T01:39:52;18.00;46.80
418;DHT22;49;48.530;9.200;2022-09-02T01:42:21;17.70;49.50
418;DHT22;49;48.530;9.200;2022-09-02T01:44:48;17.40;51.40
418;DHT22;49;48.530;9.200;2022-09-02T01:47:19;17.40;52.20
418;DHT22;49;48.530;9.200;2022-09-02T01:49:46;17.60;52.60
418;DHT22;49;48.530;9.200;2022-09-02T01:52:14;18.60;56.40
418;DHT22;49;48.530;9.200;2022-09-02T01:54:41;19.20;54.00
418;DHT22;49;48.530;9.200;2022-09-02T01:57:10;19.90;49.90
418;DHT22;49;48.530;9.200;2022-09-02T01:59:38;20.10;42.90
418;DHT22;49;48.530;9.200;2022-09-02T02:02:05;20.20;45.10
418;DHT22;49;48.530;9.200;2022-09-02T02:04:32;20.40;45.60
418;DHT22;49;48.530;9.200;2022-09-02T02:06:58;20.80;45.30
418;DHT22;49;48.530;9.200;2022-09-02T02:09:26;20.90;43.60
418;DHT22;49;48.530;9.200;2022-09-02T02:11:53;20.90;38.10
418;DHT22;49;48.530;9.200;2022-09-02T02:14:21;20.30;43.20
418;DHT22;49;48.530;9.200;2022-09-02T02:16:48;20.50;45.20
418;DHT22;49;48.530;9.200;2022-09-02T02:19:15;20.70;44.20
418;DHT22;49;48.530;9.200;2022-09-02T02:21:42;20.80;41.90
418;DHT22;49;48.530;9.200;2022-09-02T02:24:09;21.00;43.60
418;DHT22;49;48.530;9.200;2022-09-02T02:26:36;21.10;44.30
418;DHT22;49;48.530;9.200;2022-09-02T02:29:03;21.00;42.90
418;DHT22;49;48.530;9.200;2022-09-02T02:31:31;20.80;37.30
418;DHT22;49;48.530;9.200;2022-09-02T02:33:58;20.30;40.50
418;DHT22;49;48.530;9.200;2022-09-02T02:36:26;20.10;43.30
418;DHT22;49;48.530;9.200;2022-09-02T02:38:53;19.80;46.50
418;DHT22;49;48.530;9.200;2022-09-02T02:41:21;19.80;44.30
418;DHT22;49;48.530;9.200;2022-09-02T02:43:48;19.60;41.80
418;DHT22;49;48.530;9.200;2022-09-02T02:46:15;19.20;49.50
418;DHT22;49;48.530;9.200;2022-09-02T02:48:44;19.70;50.10
418;DHT22;49;48.530;9.200;2022-09-02T02:51:11;20.20;47.90
418;DHT22;49;48.530;9.200;2022-09-02T02:53:38;20.50;46.40
418;DHT22;49;48.530;9.200;2022-09-02T02:56:05;20.80;45.30
418;DHT22;49;48.530;9.200;2022-09-02T02:58:33;20.80;44.00
418;DHT22;49;48.530;9.200;2022-09-02T03:01:00;20.70;43.50
418;DHT22;49;48.530;9.200;2022-09-02T03:03:27;21.00;43.40
418;DHT22;49;48.530;9.200;2022-09-02T03:05:55;20.90;44.20
418;DHT22;49;48.530;9.200;2022-09-02T03:08:22;21.00;43.90
418;DHT22;49;48.530;9.200;2022-09-02T03:10:50;20.70;41.30
418;DHT22;49;48.530;9.200;2022-09-02T03:13:19;20.80;44.00
418;DHT22;49;48.530;9.200;2022-09-02T03:15:47;20.80;43.90
418;DHT22;49;48.530;9.200;2022-09-02T03:18:14;20.50;39.40
418;DHT22;49;48.530;9.200;2022-09-02T03:20:41;20.60;44.80
418;DHT22;49;48.530;9.200;2022-09-02T03:23:10;20.60;45.50
418;DHT22;49;48.530;9.200;2022-09-02T03:25:41;20.80;45.30
418;DHT22;49;48.530;9.200;2022-09-02T03:28:08;20.80;45.30
418;DHT22;49;48.530;9.200;2022-09-02T03:30:35;20.60;34.80
418;DHT22;49;48.530;9.200;2022-09-02T03:33:03;20.10;40.10
418;DHT22;49;48.530;9.200;2022-09-02T03:35:31;20.00;44.80
418;DHT22;49;48.530;9.200;2022-09-02T03:37:59;19.90;40.90
418;DHT22;49;48.530;9.200;2022-09-02T03:40:28;20.10;44.60
418;DHT22;49;48.530;9.200;2022-09-02T03:42:55;20.30;44.80
418;DHT22;49;48.530;9.200;2022-09-02T03:45:22;20.40;43.70
418;DHT22;49;48.530;9.200;2022-09-02T03:47:49;20.70;44.70
418;DHT22;49;48.530;9.200;2022-09-02T03:50:20;20.60;39.30
418;DHT22;49;48.530;9.200;2022-09-02T03:52:47;20.30;41.80
418;DHT22;49;48.530;9.200;2022-09-02T03:55:14;20.30;41.80
418;DHT22;49;48.530;9.200;2022-09-02T03:57:43;20.30;44.80
418;DHT22;49;48.530;9.200;2022-09-02T04:00:13;20.30;45.10
418;DHT22;49;48.530;9.200;2022-09-02T04:02:40;20.60;42.70
418;DHT22;49;48.530;9.200;2022-09-02T04:05:07;20.70;43.20
418;DHT22;49;48.530;9.200;2022-09-02T04:07:35;20.50;42.80
418;DHT22;49;48.530;9.200;2022-09-02T04:10:02;20.50;42.30
418;DHT22;49;48.530;9.200;2022-09-02T04:12:29;20.50;42.00
418;DHT22;49;48.530;9.200;2022-09-02T04:14:57;20.60;45.10
418;DHT22;49;48.530;9.200;2022-09-02T04:17:24;20.70;43.30
418;DHT22;49;48.530;9.200;2022-09-02T04:19:53;20.60;43.30
418;DHT22;49;48.530;9.200;2022-09-02T04:22:20;20.70;43.60
418;DHT22;49;48.530;9.200;2022-09-02T04:24:47;20.70;41.70
418;DHT22;49;48.530;9.200;2022-09-02T04:27:14;20.50;43.70
418;DHT22;49;48.530;9.200;2022-09-02T04:29:40;20.50;43.00
418;DHT22;49;48.530;9.200;2022-09-02T04:32:09;20.60;40.40
418;DHT22;49;48.530;9.200;2022-09-02T04:34:35;20.50;45.00
418;DHT22;49;48.530;9.200;2022-09-02T04:37:02;20.60;41.40
418;DHT22;49;48.530;9.200;2022-09-02T04:39:29;20.60;43.10
418;DHT22;49;48.530;9.200;2022-09-02T04:41:56;20.40;44.00
418;DHT22;49;48.530;9.200;2022-09-02T04:44:23;20.40;44.10
418;DHT22;49;48.530;9.200;2022-09-02T04:46:50;20.40;42.30
418;DHT22;49;48.530;9.200;2022-09-02T04:49:18;20.40;41.90
418;DHT22;49;48.530;9.200;2022-09-02T04:51:46;20.50;45.00
418;DHT22;49;48.530;9.200;2022-09-02T04:54:13;20.70;44.60
418;DHT22;49;48.530;9.200;2022-09-02T04:56:39;20.60;43.50
418;DHT22;49;48.530;9.200;2022-09-02T04:59:06;20.80;44.50
418;DHT22;49;48.530;9.200;2022-09-02T05:01:34;20.90;41.20
418;DHT22;49;48.530;9.200;2022-09-02T05:04:04;20.90;42.00
418;DHT22;49;48.530;9.200;2022-09-02T05:06:35;21.00;43.50
418;DHT22;49;48.530;9.200;2022-09-02T05:09:05;21.00;40.10
418;DHT22;49;48.530;9.200;2022-09-02T05:11:33;21.00;40.10
418;DHT22;49;48.530;9.200;2022-09-02T05:14:02;21.20;42.60
418;DHT22;49;48.530;9.200;2022-09-02T05:16:33;20.90;40.70
418;DHT22;49;48.530;9.200;2022-09-02T05:19:01;20.90;43.20
418;DHT22;49;48.530;9.200;2022-09-02T05:21:29;21.00;42.40
418;DHT22;49;48.530;9.200;2022-09-02T05:23:58;21.20;43.20
418;DHT22;49;48.530;9.200;2022-09-02T05:26:25;21.20;40.50
418;DHT22;49;48.530;9.200;2022-09-02T05:28:52;21.60;38.70
418;DHT22;49;48.530;9.200;2022-09-02T05:31:20;22.40;36.80
418;DHT22;49;48.530;9.200;2022-09-02T05:33:47;23.50;34.60
418;DHT22;49;48.530;9.200;2022-09-02T05:36:15;24.30;31.90
418;DHT22;49;48.530;9.200;2022-09-02T05:38:43;25.40;27.20
418;DHT22;49;48.530;9.200;2022-09-02T05:41:14;26.00;25.40
418;DHT22;49;48.530;9.200;2022-09-02T05:43:43;26.00;25.10
418;DHT22;49;48.530;9.200;2022-09-02T05:46:12;26.30;24.10
418;DHT22;49;48.530;9.200;2022-09-02T05:48:43;26.90;23.40
418;DHT22;49;48.530;9.200;2022-09-02T05:51:27;27.60;22.10
418;DHT22;49;48.530;9.200;2022-09-02T05:53:55;27.70;21.30
418;DHT22;49;48.530;9.200;2022-09-02T05:56:24;28.00;20.70
418;DHT22;49;48.530;9.200;2022-09-02T05:58:53;28.20;19.90
418;DHT22;49;48.530;9.200;2022-09-02T06:01:20;28.50;19.30
418;DHT22;49;48.530;9.200;2022-09-02T06:03:47;28.60;19.30
418;DHT22;49;48.530;9.200;2022-09-02T06:06:15;29.00;17.50
418;DHT22;49;48.530;9.200;2022-09-02T06:08:43;29.40;16.70
418;DHT22;49;48.530;9.200;2022-09-02T06:11:11;29.50;16.70
418;DHT22;49;48.530;9.200;2022-09-02T06:13:41;29.90;16.30
418;DHT22;49;48.530;9.200;2022-09-02T06:16:08;30.50;15.30
418;DHT22;49;48.530;9.200;2022-09-02T06:18:38;30.50;14.70
418;DHT22;49;48.530;9.200;2022-09-02T06:21:05;30.80;14.20
418;DHT22;49;48.530;9.200;2022-09-02T06:23:35;31.10;14.50
418;DHT22;49;48.530;9.200;2022-09-02T06:26:03;30.90;14.50
418;DHT22;49;48.530;9.200;2022-09-02T06:28:31;30.80;14.70
418;DHT22;49;48.530;9.200;2022-09-02T06:30:59;31.50;14.00
418;DHT22;49;48.530;9.200;2022-09-02T06:33:31;31.90;12.70
418;DHT22;49;48.530;9.200;2022-09-02T06:35:58;32.00;12.80
418;DHT22;49;48.530;9.200;2022-09-02T06:38:25;32.60;12.50
418;DHT22;49;48.530;9.200;2022-09-02T06:40:54;32.80;12.00
418;DHT22;49;48.530;9.200;2022-09-02T06:43:21;32.80;12.30
418;DHT22;49;48.530;9.200;2022-09-02T06:45:48;32.50;11.80
418;DHT22;49;48.530;9.200;2022-09-02T06:48:16;31.50;12.80
418;DHT22;49;48.530;9.200;2022-09-02T06:50:44;31.30;13.20
418;DHT22;49;48.530;9.200;2022-09-02T06:53:12;32.00;12.80
418;DHT22;49;48.530;9.200;2022-09-02T06:55:42;32.70;11.20
418;DHT22;49;48.530;9.200;2022-09-02T06:58:09;32.40;11.60
418;DHT22;49;48.530;9.200;2022-09-02T07:00:37;32.80;11.60
418;DHT22;49;48.530;9.200;2022-09-02T07:03:05;33.10;11.70
418;DHT22;49;48.530;9.200;2022-09-02T07:05:59;33.20;12.00
418;DHT22;49;48.530;9.200;2022-09-02T07:08:26;33.80;9.70
418;DHT22;49;48.530;9.200;2022-09-02T07:10:53;33.90;9.60
418;DHT22;49;48.530;9.200;2022-09-02T07:13:20;33.40;9.40
418;DHT22;49;48.530;9.200;2022-09-02T07:15:47;33.20;10.30
418;DHT22;49;48.530;9.200;2022-09-02T07:18:14;32.70;10.70
418;DHT22;49;48.530;9.200;2022-09-02T07:20:44;33.00;11.20
418;DHT22;49;48.530;9.200;2022-09-02T07:23:12;33.40;9.70
418;DHT22;49;48.530;9.200;2022-09-02T07:25:39;32.30;10.80
418;DHT22;49;48.530;9.200;2022-09-02T07:28:06;32.00;11.50
418;DHT22;49;48.530;9.200;2022-09-02T07:30:34;32.20;11.00
418;DHT22;49;48.530;9.200;2022-09-02T07:33:01;31.40;13.30
418;DHT22;49;48.530;9.200;2022-09-02T07:35:29;31.30;12.20
418;DHT22;49;48.530;9.200;2022-09-02T07:37:56;31.10;12.90
418;DHT22;49;48.530;9.200;2022-09-02T07:40:24;31.20;12.80
418;DHT22;49;48.530;9.200;2022-09-02T07:42:51;32.10;12.70
418;DHT22;49;48.530;9.200;2022-09-02T07:45:18;32.60;11.70
418;DHT22;49;48.530;9.200;2022-09-02T07:47:46;33.00;11.20
418;DHT22;49;48.530;9.200;2022-09-02T07:50:14;33.50;10.60
418;DHT22;49;48.530;9.200;2022-09-02T07:52:41;33.40;10.30
418;DHT22;49;48.530;9.200;2022-09-02T07:55:08;33.10;10.80
418;DHT22;49;48.530;9.200;2022-09-02T07:57:36;31.90;11.90
418;DHT22;49;48.530;9.200;2022-09-02T08:00:05;31.90;12.30
418;DHT22;49;48.530;9.200;2022-09-02T08:02:32;31.30;12.40
418;DHT22;49;48.530;9.200;2022-09-02T08:05:00;30.90;13.70
418;DHT22;49;48.530;9.200;2022-09-02T08:07:27;30.40;14.10
418;DHT22;49;48.530;9.200;2022-09-02T08:09:54;30.90;14.00
418;DHT22;49;48.530;9.200;2022-09-02T08:12:20;31.50;13.70
418;DHT22;49;48.530;9.200;2022-09-02T08:14:49;30.70;14.30
418;DHT22;49;48.530;9.200;2022-09-02T08:17:16;31.00;13.70
418;DHT22;49;48.530;9.200;2022-09-02T08:19:43;30.70;14.00
418;DHT22;49;48.530;9.200;2022-09-02T08:22:10;29.70;15.00
418;DHT22;49;48.530;9.200;2022-09-02T08:24:36;28.50;17.20
418;DHT22;49;48.530;9.200;2022-09-02T08:27:04;27.90;17.90
418;DHT22;49;48.530;9.200;2022-09-02T08:29:30;27.20;19.00
418;DHT22;49;48.530;9.200;2022-09-02T08:31:59;28.00;18.50
418;DHT22;49;48.530;9.200;2022-09-02T08:34:27;28.60;17.30
418;DHT22;49;48.530;9.200;2022-09-02T08:36:53;29.40;16.20
418;DHT22;49;48.530;9.200;2022-09-02T08:39:22;29.30;16.50
418;DHT22;49;48.530;9.200;2022-09-02T08:41:55;29.20;16.20
418;DHT22;49;48.530;9.200;2022-09-02T08:44:23;28.80;16.80
418;DHT22;49;48.530;9.200;2022-09-02T08:46:57;28.50;16.70
418;DHT22;49;48.530;9.200;2022-09-02T08:49:30;26.90;18.30
418;DHT22;49;48.530;9.200;2022-09-02T08:52:01;26.00;21.80
418;DHT22;49;48.530;9.200;2022-09-02T08:54:32;26.30;20.20
418;DHT22;49;48.530;9.200;2022-09-02T08:57:00;26.50;21.80
418;DHT22;49;48.530;9.200;2022-09-02T08:59:29;26.80;19.60
418;DHT22;49;48.530;9.200;2022-09-02T09:02:01;26.80;17.20
418;DHT22;49;48.530;9.200;2022-09-02T09:04:42;25.80;16.70
418;DHT22;49;48.530;9.200;2022-09-02T09:07:24;25.60;17.80
418;DHT22;49;48.530;9.200;2022-09-02T09:10:07;25.90;18.50
418;DHT22;49;48.530;9.200;2022-09-02T09:12:57;25.70;16.40
418;DHT22;49;48.530;9.200;2022-09-02T09:15:32;25.70;18.60
418;DHT22;49;48.530;9.200;2022-09-02T09:18:02;25.80;17.10
418;DHT22;49;48.530;9.200;2022-09-02T09:20:34;25.80;16.40
418;DHT22;49;48.530;9.200;2022-09-02T09:23:18;25.30;16.80
418;DHT22;49;48.530;9.200;2022-09-02T09:25:47;24.90;16.90
418;DHT22;49;48.530;9.200;2022-09-02T09:28:14;25.50;17.50
418;DHT22;49;48.530;9.200;2022-09-02T09:30:41;26.00;17.50
418;DHT22;49;48.530;9.200;2022-09-02T09:33:14;25.70;17.40
418;DHT22;49;48.530;9.200;2022-09-02T09:35:50;26.10;16.00
418;DHT22;49;48.530;9.200;2022-09-02T09:38:28;26.20;16.00
418;DHT22;49;48.530;9.200;2022-09-02T09:41:13;26.30;16.30
418;DHT22;49;48.530;9.200;2022-09-02T09:43:40;25.60;16.80
418;DHT22;49;48.530;9.200;2022-09-02T09:46:26;25.10;19.60
418;DHT22;49;48.530;9.200;2022-09-02T09:48:53;25.40;17.60
418;DHT22;49;48.530;9.200;2022-09-02T09:51:22;25.60;17.30
418;DHT22;49;48.530;9.200;2022-09-02T09:53:49;25.40;17.60
418;DHT22;49;48.530;9.200;2022-09-02T09:56:26;25.60;18.00
418;DHT22;49;48.530;9.200;2022-09-02T09:58:55;25.50;18.30
418;DHT22;49;48.530;9.200;2022-09-02T10:01:23;26.00;16.90
418;DHT22;49;48.530;9.200;2022-09-02T10:03:51;25.30;17.50
418;DHT22;49;48.530;9.200;2022-09-02T10:06:23;24.70;18.60
418;DHT22;49;48.530;9.200;2022-09-02T10:08:52;24.80;18.80
418;DHT22;49;48.530;9.200;2022-09-02T10:11:24;25.40;18.60
418;DHT22;49;48.530;9.200;2022-09-02T10:13:57;25.40;18.40
418;DHT22;49;48.530;9.200;2022-09-02T10:16:43;25.60;18.10
418;DHT22;49;48.530;9.200;2022-09-02T10:19:19;25.50;18.10
418;DHT22;49;48.530;9.200;2022-09-02T10:22:17;25.50;17.30
418;DHT22;49;48.530;9.200;2022-09-02T10:24:57;25.60;17.70
418;DHT22;49;48.530;9.200;2022-09-02T10:27:31;25.70;17.30
418;DHT22;49;48.530;9.200;2022-09-02T10:30:04;25.60;17.70
418;DHT22;49;48.530;9.200;2022-09-02T10:33:08;25.10;18.50
418;DHT22;49;48.530;9.200;2022-09-02T10:35:41;25.40;18.00
418;DHT22;49;48.530;9.200;2022-09-02T10:38:27;25.50;17.30
418;DHT22;49;48.530;9.200;2022-09-02T10:41:04;25.00;18.40
418;DHT22;49;48.530;9.200;2022-09-02T10:43:48;25.00;19.50
418;DHT22;49;48.530;9.200;2022-09-02T10:46:21;25.50;17.80
418;DHT22;49;48.530;9.200;2022-09-02T10:48:55;25.60;17.50
418;DHT22;49;48.530;9.200;2022-09-02T10:51:31;25.60;18.50
418;DHT22;49;48.530;9.200;2022-09-02T10:54:12;25.80;17.60
418;DHT22;49;48.530;9.200;2022-09-02T10:56:49;25.50;17.70
418;DHT22;49;48.530;9.200;2022-09-02T10:59:20;25.40;18.70
418;DHT22;49;48.530;9.200;2022-09-02T11:01:53;25.40;18.30
418;DHT22;49;48.530;9.200;2022-09-02T11:04:28;25.50;17.80
418;DHT22;49;48.530;9.200;2022-09-02T11:06:59;25.30;18.00
418;DHT22;49;48.530;9.200;2022-09-02T11:09:32;25.20;18.60
418;DHT22;49;48.530;9.200;2022-09-02T11:12:06;26.00;16.90
418;DHT22;49;48.530;9.200;2022-09-02T11:14:36;26.20;16.50
418;DHT22;49;48.530;9.200;2022-09-02T11:17:09;26.20;16.70
418;DHT22;49;48.530;9.200;2022-09-02T11:19:45;26.20;18.60
418;DHT22;49;48.530;9.200;2022-09-02T11:22:21;26.00;17.80
418;DHT22;49;48.530;9.200;2022-09-02T11:24:55;25.60;19.10
418;DHT22;49;48.530;9.200;2022-09-02T11:27:32;25.60;17.80
418;DHT22;49;48.530;9.200;2022-09-02T11:30:03;26.20;17.60
418;DHT22;49;48.530;9.200;2022-09-02T11:32:36;26.60;16.20
418;DHT22;49;48.530;9.200;2022-09-02T11:35:08;26.40;17.50
418;DHT22;49;48.530;9.200;2022-09-02T11:37:43;26.20;17.70
418;DHT22;49;48.530;9.200;2022-09-02T11:40:17;26.40;17.80
418;DHT22;49;48.530;9.200;2022-09-02T11:42:56;26.20;17.80
418;DHT22;49;48.530;9.200;2022-09-02T11:45:46;26.80;16.90
418;DHT22;49;48.530;9.200;2022-09-02T11:48:55;26.90;16.80
418;DHT22;49;48.530;9.200;2022-09-02T11:51:44;26.00;19.50
418;DHT22;49;48.530;9.200;2022-09-02T11:54:14;26.50;18.20
418;DHT22;49;48.530;9.200;2022-09-02T11:56:45;26.50;18.80
418;DHT22;49;48.530;9.200;2022-09-02T11:59:19;26.70;18.20
418;DHT22;49;48.530;9.200;2022-09-02T12:01:49;27.10;17.50
418;DHT22;49;48.530;9.200;2022-09-02T12:04:20;26.80;18.50
418;DHT22;49;48.530;9.200;2022-09-02T12:07:22;26.50;17.30
418;DHT22;49;48.530;9.200;2022-09-02T12:09:50;26.50;17.90
418;DHT22;49;48.530;9.200;2022-09-02T12:15:26;27.10;17.10
418;DHT22;49;48.530;9.200;2022-09-02T12:18:10;27.00;16.40
418;DHT22;49;48.530;9.200;2022-09-02T12:21:11;26.30;16.10
418;DHT22;49;48.530;9.200;2022-09-02T12:24:14;26.60;16.20
418;DHT22;49;48.530;9.200;2022-09-02T12:27:07;27.10;15.10
418;DHT22;49;48.530;9.200;2022-09-02T12:29:35;27.60;14.60
418;DHT22;49;48.530;9.200;2022-09-02T12:32:04;27.30;15.40
418;DHT22;49;48.530;9.200;2022-09-02T12:35:05;27.40;14.10
418;DHT22;49;48.530;9.200;2022-09-02T12:41:19;27.60;14.10
418;DHT22;49;48.530;9.200;2022-09-02T12:44:11;27.20;16.60
418;DHT22;49;48.530;9.200;2022-09-02T12:47:09;27.10;17.60
418;DHT22;49;48.530;9.200;2022-09-02T12:49:46;27.10;16.50
418;DHT22;49;48.530;9.200;2022-09-02T12:52:38;27.00;17.20
418;DHT22;49;48.530;9.200;2022-09-02T12:55:12;27.10;17.20
418;DHT22;49;48.530;9.200;2022-09-02T12:57:41;26.40;18.90
418;DHT22;49;48.530;9.200;2022-09-02T13:00:13;26.40;19.10
418;DHT22;49;48.530;9.200;2022-09-02T13:02:52;26.20;18.90
418;DHT22;49;48.530;9.200;2022-09-02T13:05:29;26.40;16.50
418;DHT22;49;48.530;9.200;2022-09-02T13:08:11;26.90;18.00
418;DHT22;49;48.530;9.200;2022-09-02T13:11:17;26.90;16.40
418;DHT22;49;48.530;9.200;2022-09-02T13:23:55;26.80;17.10
418;DHT22;49;48.530;9.200;2022-09-02T13:29:50;26.80;17.10
418;DHT22;49;48.530;9.200;2022-09-02T13:32:22;26.70;18.80
418;DHT22;49;48.530;9.200;2022-09-02T13:34:52;26.60;17.20
418;DHT22;49;48.530;9.200;2022-09-02T13:37:31;26.80;18.00
418;DHT22;49;48.530;9.200;2022-09-02T13:40:02;27.20;16.60
418;DHT22;49;48.530;9.200;2022-09-02T13:42:30;27.60;16.20
418;DHT22;49;48.530;9.200;2022-09-02T13:45:10;27.80;15.80
418;DHT22;49;48.530;9.200;2022-09-02T13:47:41;27.60;16.80
418;DHT22;49;48.530;9.200;2022-09-02T13:50:09;27.50;16.20
418;DHT22;49;48.530;9.200;2022-09-02T13:52:40;27.10;16.50
418;DHT22;49;48.530;9.200;2022-09-02T13:55:11;26.50;19.00
418;DHT22;49;48.530;9.200;2022-09-02T13:57:43;26.70;18.00
418;DHT22;49;48.530;9.200;2022-09-02T14:00:13;26.40;17.70
418;DHT22;49;48.530;9.200;2022-09-02T14:03:04;26.40;19.40
418;DHT22;49;48.530;9.200;2022-09-02T14:05:33;26.70;17.90
418;DHT22;49;48.530;9.200;2022-09-02T14:08:04;26.80;18.40
418;DHT22;49;48.530;9.200;2022-09-02T14:10:34;26.80;18.70
418;DHT22;49;48.530;9.200;2022-09-02T14:13:04;26.80;17.10
418;DHT22;49;48.530;9.200;2022-09-02T14:15:33;27.00;17.40
418;DHT22;49;48.530;9.200;2022-09-02T14:18:07;27.30;15.90
418;DHT22;49;48.530;9.200;2022-09-02T14:20:36;27.50;16.20
418;DHT22;49;48.530;9.200;2022-09-02T14:23:07;27.30;16.60
418;DHT22;49;48.530;9.200;2022-09-02T14:25:49;27.30;16.20
418;DHT22;49;48.530;9.200;2022-09-02T14:28:19;27.40;16.60
418;DHT22;49;48.530;9.200;2022-09-02T14:30:55;27.50;15.60
418;DHT22;49;48.530;9.200;2022-09-02T14:33:25;27.60;15.90
418;DHT22;49;48.530;9.200;2022-09-02T14:36:00;27.50;15.10
418;DHT22;49;48.530;9.200;2022-09-02T14:38:29;27.60;14.90
418;DHT22;49;48.530;9.200;2022-09-02T14:41:01;27.60;14.90
418;DHT22;49;48.530;9.200;2022-09-02T14:43:39;27.60;15.20
418;DHT22;49;48.530;9.200;2022-09-02T14:46:16;27.50;16.30
418;DHT22;49;48.530;9.200;2022-09-02T14:48:52;27.50;15.20
418;DHT22;49;48.530;9.200;2022-09-02T14:51:20;27.40;15.70
418;DHT22;49;48.530;9.200;2022-09-02T14:53:47;27.40;15.90
418;DHT22;49;48.530;9.200;2022-09-02T14:56:41;26.80;16.30
418;DHT22;49;48.530;9.200;2022-09-02T14:59:10;26.60;16.20
418;DHT22;49;48.530;9.200;2022-09-02T15:01:38;26.50;16.60
418;DHT22;49;48.530;9.200;2022-09-02T15:04:05;26.50;16.70
418;DHT22;49;48.530;9.200;2022-09-02T15:06:32;26.70;16.30
418;DHT22;49;48.530;9.200;2022-09-02T15:08:59;26.70;16.30
418;DHT22;49;48.530;9.200;2022-09-02T15:11:30;26.90;16.40
418;DHT22;49;48.530;9.200;2022-09-02T15:13:58;27.40;15.40
418;DHT22;49;48.530;9.200;2022-09-02T15:16:25;27.80;14.70
418;DHT22;49;48.530;9.200;2022-09-02T15:18:53;28.10;14.70
418;DHT22;49;48.530;9.200;2022-09-02T15:21:21;28.00;14.40
418;DHT22;49;48.530;9.200;2022-09-02T15:23:50;27.90;14.20
418;DHT22;49;48.530;9.200;2022-09-02T15:26:17;27.80;14.20
418;DHT22;49;48.530;9.200;2022-09-02T15:28:46;27.90;15.00
418;DHT22;49;48.530;9.200;2022-09-02T15:31:14;27.90;14.00
418;DHT22;49;48.530;9.200;2022-09-02T15:33:41;27.60;15.20
418;DHT22;49;48.530;9.200;2022-09-02T15:36:09;27.30;15.00
418;DHT22;49;48.530;9.200;2022-09-02T15:38:38;27.20;15.20
418;DHT22;49;48.530;9.200;2022-09-02T15:41:13;27.40;16.60
418;DHT22;49;48.530;9.200;2022-09-02T15:43:45;27.40;15.10
418;DHT22;49;48.530;9.200;2022-09-02T15:46:21;27.40;16.00
418;DHT22;49;48.530;9.200;2022-09-02T15:48:49;27.50;15.60
418;DHT22;49;48.530;9.200;2022-09-02T15:51:18;27.50;15.20
418;DHT22;49;48.530;9.200;2022-09-02T15:53:45;27.60;15.20
418;DHT22;49;48.530;9.200;2022-09-02T15:56:18;27.40;15.80
418;DHT22;49;48.530;9.200;2022-09-02T15:58:47;27.30;15.90
418;DHT22;49;48.530;9.200;2022-09-02T16:01:14;27.30;15.80
418;DHT22;49;48.530;9.200;2022-09-02T16:03:41;27.00;16.40
418;DHT22;49;48.530;9.200;2022-09-02T16:06:08;27.00;16.40
418;DHT22;49;48.530;9.200;2022-09-02T16:08:35;27.10;16.50
418;DHT22;49;48.530;9.200;2022-09-02T16:11:07;26.90;16.10
418;DHT22;49;48.530;9.200;2022-09-02T16:13:36;26.90;16.40
418;DHT22;49;48.530;9.200;2022-09-02T16:16:06;27.30;16.10
418;DHT22;49;48.530;9.200;2022-09-02T16:18:35;27.50;15.70
418;DHT22;49;48.530;9.200;2022-09-02T16:21:06;27.30;15.70
418;DHT22;49;48.530;9.200;2022-09-02T16:23:36;27.10;16.50
418;DHT22;49;48.530;9.200;2022-09-02T16:26:11;26.70;16.30
418;DHT22;49;48.530;9.200;2022-09-02T16:28:40;27.10;16.50
418;DHT22;49;48.530;9.200;2022-09-02T16:31:11;27.20;16.50
418;DHT22;49;48.530;9.200;2022-09-02T16:33:38;27.30;16.60
418;DHT22;49;48.530;9.200;2022-09-02T16:36:10;27.30;16.50
418;DHT22;49;48.530;9.200;2022-09-02T16:38:42;27.40;16.10
418;DHT22;49;48.530;9.200;2022-09-02T16:41:20;27.40;15.80
418;DHT22;49;48.530;9.200;2022-09-02T16:43:48;27.60;15.90
418;DHT22;49;48.530;9.200;2022-09-02T16:46:19;27.50;16.20
418;DHT22;49;48.530;9.200;2022-09-02T16:48:51;27.40;15.90
418;DHT22;49;48.530;9.200;2022-09-02T16:51:20;27.30;16.60
418;DHT22;49;48.530;9.200;2022-09-02T16:53:52;27.30;16.60
418;DHT22;49;48.530;9.200;2022-09-02T16:56:19;27.30;16.20
418;DHT22;49;48.530;9.200;2022-09-02T16:58:46;26.90;16.40
418;DHT22;49;48.530;9.200;2022-09-02T17:01:14;26.50;17.40
418;DHT22;49;48.530;9.200;2022-09-02T17:03:43;26.50;17.30
418;DHT22;49;48.530;9.200;2022-09-02T17:06:10;26.40;17.40
418;DHT22;49;48.530;9.200;2022-09-02T17:08:38;26.60;17.10
418;DHT22;49;48.530;9.200;2022-09-02T17:11:16;26.50;17.30
418;DHT22;49;48.530;9.200;2022-09-02T17:13:45;26.60;17.60
418;DHT22;49;48.530;9.200;2022-09-02T17:16:12;26.70;17.20
418;DHT22;49;48.530;9.200;2022-09-02T17:18:44;26.90;16.80
418;DHT22;49;48.530;9.200;2022-09-02T17:21:15;26.70;17.50
418;DHT22;49;48.530;9.200;2022-09-02T17:23:43;26.50;17.90
418;DHT22;49;48.530;9.200;2022-09-02T17:26:10;26.60;18.20
418;DHT22;49;48.530;9.200;2022-09-02T17:28:37;26.50;18.10
418;DHT22;49;48.530;9.200;2022-09-02T17:31:16;26.60;18.00
418;DHT22;49;48.530;9.200;2022-09-02T17:33:45;26.70;17.80
418;DHT22;49;48.530;9.200;2022-09-02T17:36:14;26.80;17.80